Ternholm — OWIM2 — position and weather

sailwx.info

Track history (hours):
 
Tides and Currents Weather Stations Pressure Air Temp Water Temp Dewpoint Dewpoint Depression Visibility Wind Speed Wind Dir Waves Ship Positions

Ternholm

Last reported at 2014-Dec-18 00:32 UTC. Time now 2014-Dec-18 00:55 UTC.
Position N 57°41' E 011°53'.

Length 141 m; draft 6.6 m.

Type: Ship (hazmat cat B). MMSI: 219076000.

Date/timePositionNaut miles runAvg speedWind from/ knotsBaromVisibWave heightAir tempDewpointWater temp
2014-Dec-18 00:32N 57°41' E 011°53'0 0.0
2014-Dec-17 23:32N 57°41' E 011°53'0 0.0
2014-Dec-17 22:32N 57°41' E 011°53'0 0.0
2014-Dec-17 21:31N 57°41' E 011°53'0 0.0
2014-Dec-17 20:31N 57°41' E 011°53'0 0.0
2014-Dec-17 19:28N 57°41' E 011°53'0 0.0
2014-Dec-17 18:31N 57°41' E 011°53'0 0.0
2014-Dec-17 17:31N 57°41' E 011°53'0 0.0
2014-Dec-17 16:31N 57°41' E 011°53'0 0.0
2014-Dec-17 15:31N 57°41' E 011°53'0 0.0
2014-Dec-17 14:31N 57°41' E 011°53'0 0.0
2014-Dec-17 13:31N 57°41' E 011°53'0 0.0
2014-Dec-17 12:31N 57°41' E 011°53'0 0.0
2014-Dec-17 11:31N 57°41' E 011°53'0 0.0
2014-Dec-17 10:31N 57°41' E 011°53'0 0.0
2014-Dec-17 09:31N 57°41' E 011°53'0 0.0
2014-Dec-17 08:31N 57°41' E 011°53'0 0.0
2014-Dec-17 07:31N 57°41' E 011°53'0 0.0
2014-Dec-17 06:31N 57°41' E 011°53'0 0.2
2014-Dec-17 05:33N 57°41' E 011°52'3 2.7
2014-Dec-17 04:32N 57°40' E 011°48'0 0.1
2014-Dec-17 03:32N 57°40' E 011°48'0 0.0
2014-Dec-17 02:32N 57°40' E 011°48'0 0.0
2014-Dec-17 01:32N 57°40' E 011°48'0 0.0
2014-Dec-17 00:32N 57°40' E 011°48'0 0.0
2014-Dec-16 23:32N 57°40' E 011°48'0 0.1
2014-Dec-16 22:32N 57°40' E 011°48'0 0.0
2014-Dec-16 21:32N 57°40' E 011°48'0 0.0
2014-Dec-16 20:32N 57°40' E 011°48'0 0.0
2014-Dec-16 19:32N 57°40' E 011°48'0 0.0
2014-Dec-16 18:32N 57°40' E 011°48'0 0.0
2014-Dec-16 17:32N 57°40' E 011°48'0 0.0
2014-Dec-16 16:32N 57°40' E 011°48'0 0.0
2014-Dec-16 15:32N 57°40' E 011°48'0 0.0
2014-Dec-16 14:32N 57°40' E 011°48'0 0.1
2014-Dec-16 13:28N 57°40' E 011°48'7 7.3
2014-Dec-16 12:33N 57°35' E 011°40'8 7.5
2014-Dec-16 11:33N 57°28' E 011°39'1110.3
2014-Dec-16 10:30N 57°18' E 011°49'3511.3
2014-Dec-16 07:27N 56°45' E 012°09'1011.5
2014-Dec-16 06:33N 56°35' E 012°13'1211.6
2014-Dec-16 05:29N 56°23' E 012°16'1011.1
2014-Dec-16 04:33N 56°13' E 012°23'1110.9
2014-Dec-16 03:32N 56°05' E 012°37'9 9.5
2014-Dec-16 02:33N 55°57' E 012°43'1010.0
2014-Dec-16 01:33N 55°47' E 012°48'10 9.6
2014-Dec-16 00:31N 55°38' E 012°56'8 8.8
2014-Dec-15 23:33N 55°32' E 012°45'9 9.5
2014-Dec-15 22:33N 55°23' E 012°41'10 9.9
2014-Dec-15 21:33N 55°16' E 012°54'1111.1
2014-Dec-15 20:33N 55°15' E 013°13'10 9.9
2014-Dec-15 19:33N 55°15' E 013°31'1010.5
2014-Dec-15 18:33N 55°14' E 013°49'1010.4
2014-Dec-15 17:33N 55°13' E 014°07'9 9.3
2014-Dec-15 16:33N 55°17' E 014°22'1010.3
2014-Dec-15 15:33N 55°25' E 014°33'1010.3
2014-Dec-15 14:33N 55°31' E 014°48'1010.4
2014-Dec-15 13:33N 55°36' E 015°04'  
2014-Dec-09 04:31N 55°11' E 019°11'1010.9
2014-Dec-09 03:33N 55°01' E 019°08'1111.0
2014-Dec-09 02:34N 54°50' E 019°05'1110.5
2014-Dec-09 01:33N 54°40' E 019°06'1110.6
2014-Dec-09 00:34N 54°29' E 019°01'1010.2
2014-Dec-08 23:34N 54°24' E 018°46'2 1.7
2014-Dec-08 22:34N 54°24' E 018°43'0 0.0
2014-Dec-08 21:33N 54°24' E 018°43'0 0.0
2014-Dec-08 20:33N 54°24' E 018°43'0 0.0
2014-Dec-08 19:33N 54°24' E 018°43'0 0.0
2014-Dec-08 18:33N 54°24' E 018°43'0 0.0
2014-Dec-08 17:33N 54°24' E 018°43'0 0.0
2014-Dec-08 16:33N 54°24' E 018°43'0 0.0
2014-Dec-08 15:33N 54°24' E 018°43'0 0.0
2014-Dec-08 14:33N 54°24' E 018°43'0 0.0
2014-Dec-08 13:33N 54°24' E 018°43'0 0.0
2014-Dec-08 12:33N 54°24' E 018°43'0 0.0
2014-Dec-08 11:33N 54°24' E 018°43'0 0.0
2014-Dec-08 10:33N 54°24' E 018°43'0 0.0
2014-Dec-08 09:33N 54°24' E 018°43'0 0.0
2014-Dec-08 08:33N 54°24' E 018°43'0 0.0
2014-Dec-08 07:32N 54°24' E 018°43'0 0.0
2014-Dec-08 06:32N 54°24' E 018°43'0 0.0
2014-Dec-08 05:32N 54°24' E 018°43'0 0.0
2014-Dec-08 04:32N 54°24' E 018°43'0 0.0
2014-Dec-08 03:32N 54°24' E 018°43'0 0.0
2014-Dec-08 02:32N 54°24' E 018°43'0 0.0
2014-Dec-08 01:32N 54°24' E 018°43'0 0.0
2014-Dec-08 00:32N 54°24' E 018°43'  
Track history (hours):
 
Tides and Currents Weather Stations Pressure Air Temp Water Temp Dewpoint Dewpoint Depression Visibility Wind Speed Wind Dir Waves Ship Positions

Ternholm

Last reported at 2014-Dec-18 00:32 UTC. Time now 2014-Dec-18 00:55 UTC.
Position N 57°41' E 011°53'.

Length 141 m; draft 6.6 m.

Type: Ship (hazmat cat B). MMSI: 219076000.

Date/timePositionNaut miles runAvg speedWind from/ knotsBaromVisibWave heightAir tempDewpointWater temp
2014-Dec-18 00:32N 57°41' E 011°53'0 0.0
2014-Dec-17 23:32N 57°41' E 011°53'0 0.0
2014-Dec-17 22:32N 57°41' E 011°53'0 0.0
2014-Dec-17 21:31N 57°41' E 011°53'0 0.0
2014-Dec-17 20:31N 57°41' E 011°53'0 0.0
2014-Dec-17 19:28N 57°41' E 011°53'0 0.0
2014-Dec-17 18:31N 57°41' E 011°53'0 0.0
2014-Dec-17 17:31N 57°41' E 011°53'0 0.0
2014-Dec-17 16:31N 57°41' E 011°53'0 0.0
2014-Dec-17 15:31N 57°41' E 011°53'0 0.0
2014-Dec-17 14:31N 57°41' E 011°53'0 0.0
2014-Dec-17 13:31N 57°41' E 011°53'0 0.0
2014-Dec-17 12:31N 57°41' E 011°53'0 0.0
2014-Dec-17 11:31N 57°41' E 011°53'0 0.0
2014-Dec-17 10:31N 57°41' E 011°53'0 0.0
2014-Dec-17 09:31N 57°41' E 011°53'0 0.0
2014-Dec-17 08:31N 57°41' E 011°53'0 0.0
2014-Dec-17 07:31N 57°41' E 011°53'0 0.0
2014-Dec-17 06:31N 57°41' E 011°53'0 0.2
2014-Dec-17 05:33N 57°41' E 011°52'3 2.7
2014-Dec-17 04:32N 57°40' E 011°48'0 0.1
2014-Dec-17 03:32N 57°40' E 011°48'0 0.0
2014-Dec-17 02:32N 57°40' E 011°48'0 0.0
2014-Dec-17 01:32N 57°40' E 011°48'0 0.0
2014-Dec-17 00:32N 57°40' E 011°48'0 0.0
2014-Dec-16 23:32N 57°40' E 011°48'0 0.1
2014-Dec-16 22:32N 57°40' E 011°48'0 0.0
2014-Dec-16 21:32N 57°40' E 011°48'0 0.0
2014-Dec-16 20:32N 57°40' E 011°48'0 0.0
2014-Dec-16 19:32N 57°40' E 011°48'0 0.0
2014-Dec-16 18:32N 57°40' E 011°48'0 0.0
2014-Dec-16 17:32N 57°40' E 011°48'0 0.0
2014-Dec-16 16:32N 57°40' E 011°48'0 0.0
2014-Dec-16 15:32N 57°40' E 011°48'0 0.0
2014-Dec-16 14:32N 57°40' E 011°48'0 0.1
2014-Dec-16 13:28N 57°40' E 011°48'7 7.3
2014-Dec-16 12:33N 57°35' E 011°40'8 7.5
2014-Dec-16 11:33N 57°28' E 011°39'1110.3
2014-Dec-16 10:30N 57°18' E 011°49'3511.3
2014-Dec-16 07:27N 56°45' E 012°09'1011.5
2014-Dec-16 06:33N 56°35' E 012°13'1211.6
2014-Dec-16 05:29N 56°23' E 012°16'1011.1
2014-Dec-16 04:33N 56°13' E 012°23'1110.9
2014-Dec-16 03:32N 56°05' E 012°37'9 9.5
2014-Dec-16 02:33N 55°57' E 012°43'1010.0
2014-Dec-16 01:33N 55°47' E 012°48'10 9.6
2014-Dec-16 00:31N 55°38' E 012°56'8 8.8
2014-Dec-15 23:33N 55°32' E 012°45'9 9.5
2014-Dec-15 22:33N 55°23' E 012°41'10 9.9
2014-Dec-15 21:33N 55°16' E 012°54'1111.1
2014-Dec-15 20:33N 55°15' E 013°13'10 9.9
2014-Dec-15 19:33N 55°15' E 013°31'1010.5
2014-Dec-15 18:33N 55°14' E 013°49'1010.4
2014-Dec-15 17:33N 55°13' E 014°07'9 9.3
2014-Dec-15 16:33N 55°17' E 014°22'1010.3
2014-Dec-15 15:33N 55°25' E 014°33'1010.3
2014-Dec-15 14:33N 55°31' E 014°48'1010.4
2014-Dec-15 13:33N 55°36' E 015°04'  
2014-Dec-09 04:31N 55°11' E 019°11'1010.9
2014-Dec-09 03:33N 55°01' E 019°08'1111.0
2014-Dec-09 02:34N 54°50' E 019°05'1110.5
2014-Dec-09 01:33N 54°40' E 019°06'1110.6
2014-Dec-09 00:34N 54°29' E 019°01'1010.2
2014-Dec-08 23:34N 54°24' E 018°46'2 1.7
2014-Dec-08 22:34N 54°24' E 018°43'0 0.0
2014-Dec-08 21:33N 54°24' E 018°43'0 0.0
2014-Dec-08 20:33N 54°24' E 018°43'0 0.0
2014-Dec-08 19:33N 54°24' E 018°43'0 0.0
2014-Dec-08 18:33N 54°24' E 018°43'0 0.0
2014-Dec-08 17:33N 54°24' E 018°43'0 0.0
2014-Dec-08 16:33N 54°24' E 018°43'0 0.0
2014-Dec-08 15:33N 54°24' E 018°43'0 0.0
2014-Dec-08 14:33N 54°24' E 018°43'0 0.0
2014-Dec-08 13:33N 54°24' E 018°43'0 0.0
2014-Dec-08 12:33N 54°24' E 018°43'0 0.0
2014-Dec-08 11:33N 54°24' E 018°43'0 0.0
2014-Dec-08 10:33N 54°24' E 018°43'0 0.0
2014-Dec-08 09:33N 54°24' E 018°43'0 0.0
2014-Dec-08 08:33N 54°24' E 018°43'0 0.0
2014-Dec-08 07:32N 54°24' E 018°43'0 0.0
2014-Dec-08 06:32N 54°24' E 018°43'0 0.0
2014-Dec-08 05:32N 54°24' E 018°43'0 0.0
2014-Dec-08 04:32N 54°24' E 018°43'0 0.0
2014-Dec-08 03:32N 54°24' E 018°43'0 0.0
2014-Dec-08 02:32N 54°24' E 018°43'0 0.0
2014-Dec-08 01:32N 54°24' E 018°43'0 0.0
2014-Dec-08 00:32N 54°24' E 018°43'  

Dump ship's entire track history